Time;durP1;ratioP1;P1;durP2;ratioP2;P2;SDS_P1;SDS_P2;PMS_P1;PMS_P2;Temp;Humidity;BMP_temperature;BMP_pressure;BME280_temperature;BME280_humidity;BME280_pressure;Samples;Min_cycle;Max_cycle;Signal;HPM_P1;HPM_P2
2022/10/26 00:00:26;;;;;;;15.13;3.67;;;;;;;16.23;53.87;94415.13;5044652;28;20028;-85
2022/10/26 00:02:53;;;;;;;21.33;3.38;;;;;;;16.20;53.72;94410.41;5062636;28;20025;-85
2022/10/26 00:05:18;;;;;;;12.93;4.15;;;;;;;16.16;53.95;94406.81;5062615;28;20025;-84
2022/10/26 00:07:44;;;;;;;14.98;3.85;;;;;;;16.15;53.91;94404.47;5062608;28;20112;-85
2022/10/26 00:10:09;;;;;;;21.63;4.40;;;;;;;16.10;53.88;94400.09;5062662;28;20025;-84
2022/10/26 00:12:34;;;;;;;10.10;3.50;;;;;;;16.05;53.85;94406.47;5062417;28;20067;-84
2022/10/26 00:15:00;;;;;;;7.30;2.90;;;;;;;15.99;53.79;94405.09;5062630;28;20087;-84
2022/10/26 00:17:25;;;;;;;15.98;3.42;;;;;;;16.05;53.95;94417.22;5062363;28;20031;-84
2022/10/26 00:19:51;;;;;;;13.35;3.17;;;;;;;15.94;54.09;94404.56;5062534;28;20048;-85
2022/10/26 00:22:16;;;;;;;18.85;3.00;;;;;;;15.97;54.02;94409.25;5062516;28;20033;-85
2022/10/26 00:24:41;;;;;;;13.80;3.05;;;;;;;15.94;54.08;94413.41;5062291;28;20326;-85
2022/10/26 00:27:07;;;;;;;7.40;2.85;;;;;;;15.88;53.96;94400.50;5062343;28;20347;-84
2022/10/26 00:29:32;;;;;;;11.85;3.67;;;;;;;15.82;54.19;94399.94;5062466;28;20025;-84
2022/10/26 00:31:58;;;;;;;7.10;3.10;;;;;;;15.84;54.33;94409.22;5062459;28;20025;-85
2022/10/26 00:34:23;;;;;;;20.02;4.10;;;;;;;15.85;54.58;94410.00;5044262;28;20040;-85
2022/10/26 00:36:48;;;;;;;13.48;5.28;;;;;;;15.75;54.58;94411.22;5062189;28;20329;-85
2022/10/26 00:39:14;;;;;;;13.70;3.53;;;;;;;15.67;54.88;94405.91;5062454;28;20052;-85
2022/10/26 00:41:39;;;;;;;7.00;2.60;;;;;;;15.61;55.04;94411.50;5062186;28;20040;-85
2022/10/26 00:44:42;;;;;;;14.80;3.40;;;;;;;15.53;55.03;94409.69;5044396;28;20028;-85
2022/10/26 00:47:13;;;;;;;16.33;3.28;;;;;;;15.53;55.19;94396.25;5062157;28;20108;-85
2022/10/26 00:49:39;;;;;;;7.63;3.20;;;;;;;15.45;55.47;94397.88;5062084;28;20032;-85
2022/10/26 00:52:06;;;;;;;13.85;3.75;;;;;;;15.48;55.04;94403.72;5062077;28;20018;-85
2022/10/26 00:54:32;;;;;;;7.72;2.65;;;;;;;15.50;54.60;94404.16;5062216;28;20211;-86
2022/10/26 00:56:58;;;;;;;9.23;2.92;;;;;;;15.47;55.13;94402.13;5062036;28;20025;-86
2022/10/26 00:59:24;;;;;;;15.85;3.97;;;;;;;15.50;55.35;94398.81;5062094;28;20045;-86
2022/10/26 01:01:50;;;;;;;7.95;2.38;;;;;;;15.50;54.96;94394.22;5062029;28;20266;-86
2022/10/26 01:04:17;;;;;;;12.15;3.33;;;;;;;15.49;55.17;94391.84;5044457;28;20331;-85
2022/10/26 01:06:43;;;;;;;9.18;2.63;;;;;;;15.45;54.95;94399.78;5065731;28;20028;-84
2022/10/26 01:09:10;;;;;;;10.52;2.55;;;;;;;15.45;55.02;94386.38;5065922;28;20021;-85
2022/10/26 01:11:35;;;;;;;12.75;3.10;;;;;;;15.46;54.29;94390.59;5047937;28;20131;-84
2022/10/26 01:14:05;;;;;;;8.75;3.25;;;;;;;15.43;54.24;94388.59;5065707;28;20099;-84
2022/10/26 01:16:30;;;;;;;7.80;2.25;;;;;;;15.42;54.13;94387.78;5065712;28;20032;-85
2022/10/26 01:19:11;;;;;;;7.32;2.40;;;;;;;15.41;54.12;94382.78;5065786;28;20017;-84
2022/10/26 01:22:09;;;;;;;9.57;2.03;;;;;;;15.37;53.75;94382.63;5047731;28;20104;-85
2022/10/26 01:25:04;;;;;;;10.73;2.10;;;;;;;15.46;53.75;94390.59;5065372;28;20024;-85
2022/10/26 01:27:36;;;;;;;8.20;2.40;;;;;;;15.49;53.56;94383.78;5060045;28;20382;-85
2022/10/26 01:30:24;;;;;;;10.07;2.40;;;;;;;15.49;53.60;94391.84;5065451;28;20036;-85
2022/10/26 01:33:01;;;;;;;11.77;2.35;;;;;;;15.47;53.70;94396.75;5065553;28;20047;-84
2022/10/26 01:35:33;;;;;;;10.63;2.50;;;;;;;15.48;53.75;94388.38;5065142;28;20255;-85
2022/10/26 01:38:10;;;;;;;6.55;2.55;;;;;;;15.45;53.98;94391.75;5065232;28;20096;-85
2022/10/26 01:40:41;;;;;;;11.50;2.55;;;;;;;15.38;54.06;94386.88;5065299;28;20065;-85
2022/10/26 01:43:11;;;;;;;5.17;2.00;;;;;;;15.36;54.37;94383.75;5065107;28;20044;-85
2022/10/26 01:45:41;;;;;;;9.82;2.90;;;;;;;15.29;54.67;94371.97;5065252;28;20017;-85
2022/10/26 01:48:11;;;;;;;8.20;2.17;;;;;;;15.29;54.56;94371.97;5065218;28;20260;-85
2022/10/26 01:50:39;;;;;;;10.73;3.13;;;;;;;15.30;54.82;94368.16;5064792;28;20021;-85
2022/10/26 01:53:04;;;;;;;6.15;2.40;;;;;;;15.29;54.76;94369.28;5065056;28;20032;-84
2022/10/26 01:55:49;;;;;;;8.45;3.25;;;;;;;15.32;55.03;94361.34;5064998;28;20025;-85
2022/10/26 01:58:26;;;;;;;10.85;2.58;;;;;;;15.34;54.33;94361.03;5065002;28;20303;-85
2022/10/26 02:01:28;;;;;;;5.22;1.90;;;;;;;15.25;54.26;94375.31;5064829;28;20222;-84
2022/10/26 02:04:12;;;;;;;7.65;2.70;;;;;;;15.38;54.12;94373.44;5064834;28;20029;-84
2022/10/26 02:06:46;;;;;;;9.45;2.53;;;;;;;15.43;53.96;94365.19;5064687;28;20323;-84
2022/10/26 02:09:50;;;;;;;6.20;2.28;;;;;;;15.42;53.68;94366.31;5064833;28;20028;-84
2022/10/26 02:12:44;;;;;;;13.25;2.25;;;;;;;15.47;53.86;94359.97;5003608;28;20097;-84
2022/10/26 02:15:38;;;;;;;14.02;2.30;;;;;;;15.45;53.62;94371.03;5003504;28;20034;-84
2022/10/26 02:18:44;;;;;;;14.07;2.67;;;;;;;15.49;53.53;94373.84;5047761;28;20037;-84
2022/10/26 02:21:18;;;;;;;8.68;2.13;;;;;;;15.49;53.93;94375.72;5064236;28;20020;-84
2022/10/26 02:23:46;;;;;;;13.20;2.70;;;;;;;15.44;54.24;94380.19;5063393;28;20227;-84
2022/10/26 02:26:15;;;;;;;7.05;2.53;;;;;;;15.40;54.57;94389.25;5064529;28;20097;-83
2022/10/26 02:28:48;;;;;;;14.00;2.80;;;;;;;15.36;55.00;94382.97;5064236;28;20025;-83
2022/10/26 02:31:15;;;;;;;9.70;2.75;;;;;;;15.29;55.16;94380.81;5064460;28;20036;-83
2022/10/26 02:33:47;;;;;;;6.63;2.95;;;;;;;15.25;55.43;94383.38;5064301;28;20049;-84
2022/10/26 02:36:17;;;;;;;14.70;2.77;;;;;;;15.18;55.38;94390.38;5064157;28;20048;-83
2022/10/26 02:38:45;;;;;;;6.68;2.47;;;;;;;15.08;55.52;94388.09;5064273;28;20024;-83
2022/10/26 02:41:13;;;;;;;6.45;3.17;;;;;;;15.09;55.30;94379.72;5063934;28;20025;-86
2022/10/26 02:43:47;;;;;;;9.48;2.63;;;;;;;15.07;55.76;94381.94;5064259;28;20021;-86
2022/10/26 02:46:16;;;;;;;10.85;2.92;;;;;;;15.04;55.90;94388.75;5064307;28;20074;-85
2022/10/26 02:48:42;;;;;;;11.82;2.38;;;;;;;15.04;55.96;94382.59;5063753;28;20017;-85
2022/10/26 02:51:27;;;;;;;12.90;2.75;;;;;;;15.00;56.23;94385.16;5063991;28;20036;-86
2022/10/26 02:53:57;;;;;;;8.80;2.63;;;;;;;14.92;56.51;94391.38;5063904;28;20024;-85
2022/10/26 02:57:01;;;;;;;11.23;2.65;;;;;;;14.82;56.83;94386.41;5063918;28;20028;-85
2022/10/26 02:59:30;;;;;;;13.20;2.92;;;;;;;14.78;57.13;94388.16;5052740;28;20036;-85
2022/10/26 03:01:56;;;;;;;7.93;2.58;;;;;;;14.73;57.45;94388.34;5063858;28;20040;-85
2022/10/26 03:04:28;;;;;;;6.50;1.77;;;;;;;14.63;57.47;94387.63;5063774;28;20314;-84
2022/10/26 03:06:54;;;;;;;6.80;2.33;;;;;;;14.66;57.60;94398.81;5063557;28;20319;-84
2022/10/26 03:09:20;;;;;;;15.88;2.92;;;;;;;14.65;57.78;94392.66;5063578;28;20047;-84
2022/10/26 03:11:45;;;;;;;7.70;2.10;;;;;;;14.61;57.95;94397.91;5063632;28;20017;-84
2022/10/26 03:14:11;;;;;;;15.32;2.42;;;;;;;14.57;58.06;94396.19;5063510;28;20271;-84
2022/10/26 03:16:36;;;;;;;7.68;2.95;;;;;;;14.51;58.29;94408.97;5063302;28;20020;-84
2022/10/26 03:19:01;;;;;;;11.05;2.85;;;;;;;14.42;58.69;94409.00;5063473;28;20241;-84
2022/10/26 03:21:27;;;;;;;7.80;3.22;;;;;;;14.30;59.17;94408.91;5063225;28;20027;-84
2022/10/26 03:23:53;;;;;;;10.52;3.13;;;;;;;14.21;59.60;94416.22;5045518;28;20307;-84
2022/10/26 03:26:19;;;;;;;14.25;3.17;;;;;;;14.06;60.34;94425.56;5063053;28;20028;-84
2022/10/26 03:28:44;;;;;;;7.03;3.35;;;;;;;14.05;60.39;94430.13;5063115;28;20074;-84
2022/10/26 03:31:10;;;;;;;7.38;3.08;;;;;;;13.98;60.63;94429.06;5063178;28;20021;-84
2022/10/26 03:33:35;;;;;;;6.75;3.08;;;;;;;13.97;60.63;94432.84;5063090;28;20100;-84
2022/10/26 03:36:00;;;;;;;15.93;4.07;;;;;;;13.91;61.05;94431.47;5062731;28;20056;-84
2022/10/26 03:38:26;;;;;;;9.43;4.03;;;;;;;13.87;61.51;94427.84;5062960;28;20096;-84
2022/10/26 03:40:51;;;;;;;15.15;4.15;;;;;;;13.77;61.90;94427.06;5062982;28;20060;-84
2022/10/26 03:43:17;;;;;;;9.05;3.50;;;;;;;13.61;62.28;94426.00;5063095;28;20246;-84
2022/10/26 03:45:42;;;;;;;10.25;3.85;;;;;;;13.55;62.53;94428.03;5045305;28;20117;-85
2022/10/26 03:48:08;;;;;;;13.95;3.85;;;;;;;13.48;62.91;94438.47;5062804;28;20024;-85
2022/10/26 03:50:33;;;;;;;12.90;4.80;;;;;;;13.41;63.14;94428.25;5062688;28;20100;-85
2022/10/26 03:52:58;;;;;;;16.77;3.85;;;;;;;13.35;63.62;94436.72;5062486;28;20016;-85
2022/10/26 03:55:24;;;;;;;12.02;3.80;;;;;;;13.28;63.76;94439.06;5062693;28;20021;-85
2022/10/26 03:57:49;;;;;;;12.27;4.38;;;;;;;13.23;64.01;94434.69;5062986;28;20021;-84
2022/10/26 04:00:16;;;;;;;12.02;4.70;;;;;;;13.20;64.54;94427.25;5062752;28;20338;-84
2022/10/26 04:02:45;;;;;;;13.43;5.70;;;;;;;13.14;65.00;94423.94;5062346;28;20025;-84
2022/10/26 04:05:11;;;;;;;16.95;3.90;;;;;;;13.02;65.50;94432.59;5062682;28;20084;-84
2022/10/26 04:07:36;;;;;;;13.23;4.40;;;;;;;12.92;65.70;94435.59;5062589;28;20333;-84
2022/10/26 04:10:03;;;;;;;12.88;4.70;;;;;;;12.83;65.85;94422.19;5062393;28;20053;-84
2022/10/26 04:12:29;;;;;;;12.43;4.40;;;;;;;12.82;65.94;94428.66;5062464;28;20017;-85
2022/10/26 04:14:56;;;;;;;11.90;4.32;;;;;;;12.85;65.86;94432.59;5062474;28;20063;-85
2022/10/26 04:17:22;;;;;;;12.05;4.05;;;;;;;12.79;66.13;94431.19;5062373;28;20265;-84
2022/10/26 04:19:48;;;;;;;13.30;3.67;;;;;;;12.80;66.54;94435.41;5062299;28;20060;-84
2022/10/26 04:22:13;;;;;;;10.65;3.63;;;;;;;12.84;66.87;94439.03;5062355;28;20315;-83
2022/10/26 04:24:39;;;;;;;14.13;3.78;;;;;;;12.94;66.50;94436.06;5062281;28;20025;-82
2022/10/26 04:27:04;;;;;;;7.57;2.95;;;;;;;12.93;66.75;94442.53;5062544;28;20017;-83
2022/10/26 04:29:30;;;;;;;13.80;2.70;;;;;;;13.09;66.48;94434.03;5062210;28;20322;-82
2022/10/26 04:31:55;;;;;;;11.43;3.70;;;;;;;13.16;66.03;94427.09;5062315;28;20047;-82
2022/10/26 04:34:20;;;;;;;16.15;3.92;;;;;;;13.27;65.74;94438.31;5062085;28;20036;-82
2022/10/26 04:36:46;;;;;;;19.50;4.60;;;;;;;13.29;65.71;94430.78;5062315;28;20064;-82
2022/10/26 04:39:11;;;;;;;14.20;4.13;;;;;;;13.36;65.31;94436.41;5062108;28;20021;-82
2022/10/26 04:41:37;;;;;;;10.40;3.80;;;;;;;13.36;65.28;94432.97;5065949;28;20032;-83
2022/10/26 04:44:02;;;;;;;18.27;5.32;;;;;;;13.29;65.57;94435.28;5066428;28;20020;-83
2022/10/26 04:46:28;;;;;;;15.23;3.83;;;;;;;13.31;65.61;94449.97;5066273;28;20021;-83
2022/10/26 04:48:53;;;;;;;21.27;3.95;;;;;;;13.18;65.85;94448.97;5066067;28;20017;-83
2022/10/26 04:51:19;;;;;;;10.73;4.07;;;;;;;13.09;66.10;94442.84;5066240;28;20222;-84
2022/10/26 04:53:44;;;;;;;13.38;3.17;;;;;;;13.07;66.23;94444.25;5066210;28;20052;-82
2022/10/26 04:56:10;;;;;;;7.07;3.53;;;;;;;13.04;66.52;94445.66;5065970;28;20048;-83
2022/10/26 04:58:35;;;;;;;6.78;2.80;;;;;;;12.96;67.00;94452.59;5065849;28;20055;-83
2022/10/26 05:01:01;;;;;;;19.38;3.17;;;;;;;12.95;67.26;94459.06;5065856;28;20312;-83
2022/10/26 05:03:27;;;;;;;12.82;3.75;;;;;;;12.93;67.61;94457.78;5065760;28;20024;-84
2022/10/26 05:05:53;;;;;;;8.57;3.15;;;;;;;12.96;67.40;94459.84;5065633;28;20021;-84
2022/10/26 05:08:21;;;;;;;14.25;4.63;;;;;;;13.00;67.36;94456.22;5065675;28;20062;-83
2022/10/26 05:10:48;;;;;;;7.75;3.72;;;;;;;12.96;67.64;94460.63;5065998;28;20028;-83
2022/10/26 05:13:14;;;;;;;9.82;3.85;;;;;;;13.00;67.72;94460.78;5048062;28;20251;-83
2022/10/26 05:15:39;;;;;;;8.75;4.03;;;;;;;13.02;67.60;94456.69;5065879;28;20020;-84
2022/10/26 05:18:05;;;;;;;14.85;3.92;;;;;;;13.08;67.74;94456.53;5065682;28;20025;-83
2022/10/26 05:20:32;;;;;;;11.82;4.47;;;;;;;13.14;67.50;94463.31;5065567;28;20021;-85
2022/10/26 05:23:00;;;;;;;17.58;5.30;;;;;;;13.16;67.36;94451.19;5065214;28;20055;-84
2022/10/26 05:25:29;;;;;;;24.20;6.10;;;;;;;13.20;67.42;94454.03;5065494;28;20067;-84
2022/10/26 05:28:03;;;;;;;16.38;4.47;;;;;;;13.21;67.50;94459.06;5065418;28;20071;-79
2022/10/26 05:30:29;;;;;;;12.82;4.45;;;;;;;13.16;67.64;94461.13;5047331;28;20314;-83
2022/10/26 05:33:12;;;;;;;8.55;3.25;;;;;;;13.19;67.97;94465.84;5065349;28;20025;-81
2022/10/26 05:35:38;;;;;;;11.15;3.95;;;;;;;13.25;67.95;94476.09;5065053;28;20294;-80
2022/10/26 05:38:15;;;;;;;18.20;5.05;;;;;;;13.32;68.02;94475.63;5065203;28;20021;-79
2022/10/26 05:40:51;;;;;;;13.45;6.15;;;;;;;13.41;67.83;94484.47;5064876;28;20056;-82
2022/10/26 05:43:17;;;;;;;15.00;4.82;;;;;;;13.51;67.34;94482.56;5065210;28;20037;-77
2022/10/26 05:45:43;;;;;;;11.00;4.65;;;;;;;13.52;67.70;94492.97;5065423;28;20092;-86
2022/10/26 05:48:09;;;;;;;33.03;5.32;;;;;;;13.60;67.64;94489.50;5065317;28;20079;-91
2022/10/26 05:50:34;;;;;;;14.60;4.97;;;;;;;13.67;67.36;94493.59;5066111;28;20029;-91
2022/10/26 05:53:00;;;;;;;16.50;4.93;;;;;;;13.73;67.15;94495.78;5065829;28;20051;-83
2022/10/26 05:55:26;;;;;;;13.60;4.28;;;;;;;13.81;67.21;94500.34;5065405;28;20025;-90
2022/10/26 05:57:52;;;;;;;27.63;5.55;;;;;;;13.88;67.11;94507.91;5065091;28;20326;-84
2022/10/26 06:00:19;;;;;;;24.42;5.25;;;;;;;13.94;66.81;94508.50;5065031;28;20271;-86
2022/10/26 06:03:09;;;;;;;19.98;5.55;;;;;;;14.03;66.10;94507.41;5065507;28;20036;-86
2022/10/26 06:05:51;;;;;;;19.33;5.57;;;;;;;14.07;65.77;94512.91;5065173;28;20021;-84
2022/10/26 06:08:16;;;;;;;17.38;4.95;;;;;;;14.09;65.77;94509.94;5065173;28;20021;-83
2022/10/26 06:10:42;;;;;;;17.65;5.13;;;;;;;14.15;65.54;94512.09;5065062;28;20073;-83
2022/10/26 06:13:08;;;;;;;15.32;4.22;;;;;;;14.19;65.49;94521.09;5064800;28;20047;-83
2022/10/26 06:15:43;;;;;;;16.90;4.45;;;;;;;14.20;65.60;94527.22;5064905;28;20062;-83
2022/10/26 06:18:34;;;;;;;20.40;5.10;;;;;;;14.25;65.85;94519.81;5064779;28;20079;-82
2022/10/26 06:21:30;;;;;;;23.20;5.20;;;;;;;14.32;65.52;94526.56;5064348;28;20130;-85
2022/10/26 06:24:06;;;;;;;10.13;4.18;;;;;;;14.31;65.17;94525.78;5063634;28;20032;-81
2022/10/26 06:26:56;;;;;;;18.00;5.07;;;;;;;14.35;65.33;94524.03;5064018;28;20021;-79
2022/10/26 06:29:49;;;;;;;10.27;4.97;;;;;;;14.38;64.88;94528.75;5063736;28;20243;-80
2022/10/26 06:32:16;;;;;;;12.27;4.70;;;;;;;14.40;65.10;94525.75;5064535;28;20021;-82
2022/10/26 06:34:47;;;;;;;19.23;5.03;;;;;;;14.45;65.38;94530.97;5063151;28;20092;-76
2022/10/26 06:37:13;;;;;;;13.50;4.93;;;;;;;14.49;65.14;94533.78;5062415;28;20032;-77
2022/10/26 06:39:44;;;;;;;17.95;4.95;;;;;;;14.57;64.99;94536.47;5062803;28;20025;-77
2022/10/26 06:42:10;;;;;;;14.52;4.63;;;;;;;14.59;64.35;94536.94;5063995;28;20266;-77
2022/10/26 06:44:36;;;;;;;8.77;4.13;;;;;;;14.63;63.74;94531.69;5064064;28;20027;-75
2022/10/26 06:47:13;;;;;;;11.52;4.60;;;;;;;14.64;63.91;94533.28;5063472;28;20028;-75
2022/10/26 06:49:47;;;;;;;9.07;3.60;;;;;;;14.70;63.32;94539.25;5063696;28;20310;-76
2022/10/26 06:52:19;;;;;;;7.70;4.10;;;;;;;14.66;63.16;94533.75;5063942;28;20204;-75
2022/10/26 06:54:50;;;;;;;14.15;3.85;;;;;;;14.70;63.74;94544.63;5064001;28;20254;-77
2022/10/26 06:57:18;;;;;;;11.50;3.88;;;;;;;14.70;63.48;94540.03;5063879;28;20031;-77
2022/10/26 06:59:55;;;;;;;12.25;3.67;;;;;;;14.78;63.31;94543.81;5064045;28;20020;-76
2022/10/26 07:02:21;;;;;;;12.35;4.63;;;;;;;14.88;62.71;94545.31;5062891;28;20033;-75
2022/10/26 07:04:46;;;;;;;8.65;3.95;;;;;;;14.96;62.61;94544.50;5063366;28;20051;-75
2022/10/26 07:07:18;;;;;;;13.95;4.25;;;;;;;15.02;62.34;94554.75;5063430;28;20288;-77
2022/10/26 07:09:44;;;;;;;18.73;4.55;;;;;;;15.09;62.15;94559.59;5063656;28;20056;-76
2022/10/26 07:12:09;;;;;;;11.65;4.30;;;;;;;15.12;62.37;94558.97;5063319;28;20025;-75
2022/10/26 07:14:35;;;;;;;12.55;4.15;;;;;;;15.18;62.21;94560.34;5063129;28;20043;-75
2022/10/26 07:17:00;;;;;;;11.70;5.00;;;;;;;15.29;61.85;94557.28;5063202;28;20071;-75
2022/10/26 07:19:26;;;;;;;13.63;5.57;;;;;;;15.31;61.81;94563.91;5063289;28;20067;-76
2022/10/26 07:21:55;;;;;;;14.18;5.57;;;;;;;15.36;61.60;94560.22;5062868;28;20249;-76
2022/10/26 07:24:21;;;;;;;17.05;5.13;;;;;;;15.42;61.56;94545.50;5063131;28;20088;-76
2022/10/26 07:26:47;;;;;;;15.00;5.05;;;;;;;15.46;61.40;94551.78;5063277;28;20032;-76
2022/10/26 07:29:13;;;;;;;13.30;5.22;;;;;;;15.53;61.43;94551.25;5063161;28;20025;-75
2022/10/26 07:31:38;;;;;;;15.57;4.95;;;;;;;15.61;60.80;94542.34;5063078;28;20016;-76
2022/10/26 07:34:04;;;;;;;8.80;4.05;;;;;;;15.66;60.23;94550.22;5063086;28;20048;-75
2022/10/26 07:36:29;;;;;;;16.70;4.07;;;;;;;15.69;60.45;94546.09;5062771;28;20041;-76
2022/10/26 07:38:55;;;;;;;17.33;6.68;;;;;;;15.68;60.45;94548.00;5062724;28;20033;-75
2022/10/26 07:41:20;;;;;;;15.43;4.30;;;;;;;15.70;60.52;94548.44;5062943;28;20052;-75
2022/10/26 07:43:47;;;;;;;10.00;5.10;;;;;;;15.58;60.49;94546.47;5062997;28;20227;-76
2022/10/26 07:46:13;;;;;;;14.98;4.95;;;;;;;15.60;60.91;94543.47;5063009;28;20108;-75
2022/10/26 07:48:40;;;;;;;14.90;5.28;;;;;;;15.69;61.05;94549.56;5062534;28;20025;-76
2022/10/26 07:51:06;;;;;;;12.52;5.15;;;;;;;15.73;60.79;94537.06;5062817;28;20017;-76
2022/10/26 07:53:31;;;;;;;18.90;4.85;;;;;;;15.78;60.44;94542.25;5062740;28;20338;-76
2022/10/26 07:55:57;;;;;;;18.60;4.68;;;;;;;15.86;59.84;94551.38;5062654;28;20242;-76
2022/10/26 07:58:25;;;;;;;12.82;4.30;;;;;;;15.98;59.79;94539.88;5062763;28;20032;-76
2022/10/26 08:00:54;;;;;;;13.63;4.63;;;;;;;16.05;59.60;94542.81;5062663;28;20326;-76
2022/10/26 08:03:20;;;;;;;10.70;5.20;;;;;;;16.07;59.46;94539.78;5062430;28;20029;-76
2022/10/26 08:05:46;;;;;;;10.55;4.18;;;;;;;16.09;58.98;94538.34;5062853;28;20025;-76
2022/10/26 08:08:12;;;;;;;8.50;4.00;;;;;;;16.15;58.86;94547.00;5062573;28;20028;-76
2022/10/26 08:10:42;;;;;;;12.20;4.13;;;;;;;16.16;58.93;94543.97;5044724;28;20315;-76
2022/10/26 08:13:08;;;;;;;11.68;4.10;;;;;;;16.14;58.80;94534.66;5044675;28;20134;-76
2022/10/26 08:15:34;;;;;;;16.95;4.88;;;;;;;16.19;58.88;94543.31;5061561;28;20100;-76
2022/10/26 08:17:59;;;;;;;13.88;5.03;;;;;;;16.24;59.11;94535.03;5062229;28;20319;-76
2022/10/26 08:20:24;;;;;;;12.93;4.10;;;;;;;16.33;58.97;94540.31;5062304;28;20082;-76
2022/10/26 08:22:51;;;;;;;12.73;4.72;;;;;;;16.48;58.15;94536.19;5062443;28;20040;-76
2022/10/26 08:25:17;;;;;;;15.13;4.38;;;;;;;16.52;57.96;94539.78;5062612;28;20070;-76
2022/10/26 08:27:43;;;;;;;9.75;4.72;;;;;;;16.61;57.85;94548.56;5062441;28;20017;-76
2022/10/26 08:30:09;;;;;;;18.35;3.83;;;;;;;16.66;57.51;94542.19;5062350;28;20129;-76
2022/10/26 08:32:34;;;;;;;13.68;4.90;;;;;;;16.70;57.62;94539.59;5062105;28;20021;-76
2022/10/26 08:34:59;;;;;;;16.17;4.22;;;;;;;16.68;57.50;94539.94;5062080;28;20047;-76
2022/10/26 08:37:26;;;;;;;16.70;3.85;;;;;;;16.69;57.29;94533.44;5062146;28;20071;-76
2022/10/26 08:39:51;;;;;;;10.82;4.00;;;;;;;16.79;56.94;94532.19;5062167;28;20036;-76
2022/10/26 08:42:43;;;;;;;8.82;3.63;;;;;;;16.87;56.65;94528.63;5062278;28;20021;-76
2022/10/26 08:45:34;;;;;;;12.20;3.53;;;;;;;16.84;56.20;94534.72;5062119;28;20024;-76
2022/10/26 08:48:05;;;;;;;14.85;3.83;;;;;;;16.75;56.60;94537.50;5062001;28;20101;-76
2022/10/26 08:50:36;;;;;;;8.52;3.55;;;;;;;16.91;56.40;94537.63;5062214;28;20126;-76
2022/10/26 08:53:05;;;;;;;19.13;4.50;;;;;;;16.99;56.06;94541.31;5061986;28;20020;-76
2022/10/26 08:55:39;;;;;;;8.60;4.03;;;;;;;17.14;55.08;94547.97;5061910;28;20031;-76
2022/10/26 08:58:11;;;;;;;7.47;3.60;;;;;;;17.16;55.08;94540.34;5062094;28;20023;-76
2022/10/26 09:00:37;;;;;;;11.50;3.70;;;;;;;17.29;54.24;94544.56;5062019;28;20028;-76
2022/10/26 09:03:12;;;;;;;11.57;4.00;;;;;;;17.34;54.46;94552.44;5061827;28;20033;-76
2022/10/26 09:05:53;;;;;;;9.57;4.00;;;;;;;17.41;53.64;94547.25;5061962;28;20335;-76
2022/10/26 09:08:28;;;;;;;19.85;4.50;;;;;;;17.47;53.66;94536.25;5061772;28;20066;-76
2022/10/26 09:11:12;;;;;;;12.13;3.17;;;;;;;17.54;52.91;94539.91;5061651;28;20035;-75
2022/10/26 09:14:05;;;;;;;10.02;3.15;;;;;;;17.61;51.84;94533.97;5061830;28;20025;-76
2022/10/26 09:16:50;;;;;;;;;;;;;;;17.67;50.95;94543.38;5062311;28;20021;-75
2022/10/26 09:19:27;;;;;;;9.90;2.70;;;;;;;17.71;51.54;94538.88;5054652;28;19904;-75
2022/10/26 09:22:09;;;;;;;8.30;3.55;;;;;;;17.77;50.75;94544.81;5061651;28;20028;-75
2022/10/26 09:24:41;;;;;;;7.45;3.13;;;;;;;17.78;50.62;94544.47;5061743;28;20319;-75
2022/10/26 09:27:23;;;;;;;7.22;2.70;;;;;;;17.84;50.12;94537.72;5064408;28;20025;-75
2022/10/26 09:29:50;;;;;;;6.85;2.92;;;;;;;17.85;49.32;94527.75;5065379;28;20036;-75
2022/10/26 09:32:24;;;;;;;8.35;2.50;;;;;;;17.88;47.46;94543.22;5065710;28;20029;-75
2022/10/26 09:34:54;;;;;;;11.77;3.42;;;;;;;17.91;50.34;94549.84;5065072;28;20025;-76
2022/10/26 09:37:27;;;;;;;11.40;2.40;;;;;;;17.98;48.47;94547.38;5065438;28;20192;-76
2022/10/26 09:40:07;;;;;;;9.25;1.88;;;;;;;18.01;47.02;94535.88;5065364;28;20032;-75
2022/10/26 09:42:58;;;;;;;4.03;1.90;;;;;;;18.09;46.71;94534.94;5064992;28;20330;-76
2022/10/26 09:45:27;;;;;;;10.02;2.70;;;;;;;18.17;47.00;94528.59;5064909;28;20299;-76
2022/10/26 09:47:55;;;;;;;5.10;2.40;;;;;;;18.25;47.46;94526.88;5065257;28;20024;-76
2022/10/26 09:50:32;;;;;;;6.35;2.08;;;;;;;18.29;46.90;94530.47;5065134;28;20021;-76
2022/10/26 09:52:58;;;;;;;5.10;2.00;;;;;;;18.35;46.30;94529.09;5064996;28;20088;-76
2022/10/26 09:55:23;;;;;;;6.70;2.03;;;;;;;18.40;47.42;94539.63;5064932;28;20064;-77
2022/10/26 09:57:55;;;;;;;8.93;2.65;;;;;;;18.46;46.76;94523.97;5064904;28;20032;-76
2022/10/26 10:00:22;;;;;;;5.55;2.78;;;;;;;18.47;45.83;94530.16;5064963;28;20036;-77
2022/10/26 10:02:54;;;;;;;5.35;1.70;;;;;;;18.51;46.04;94521.00;5064943;28;20029;-77
2022/10/26 10:05:26;;;;;;;11.38;1.70;;;;;;;18.61;44.98;94514.31;5064974;28;20028;-77
2022/10/26 10:07:51;;;;;;;;;;;;;;;18.68;45.62;94514.47;5065170;28;20086;-76
2022/10/26 10:10:21;;;;;;;4.88;2.47;;;;;;;18.69;45.93;94509.88;5064915;28;20191;-76
2022/10/26 10:12:51;;;;;;;10.98;2.53;;;;;;;18.74;46.35;94504.22;5065111;28;20021;-76
2022/10/26 10:15:25;;;;;;;9.20;2.30;;;;;;;18.79;46.52;94507.47;5064760;28;20258;-76
2022/10/26 10:17:54;;;;;;;8.48;2.28;;;;;;;18.93;46.68;94507.03;5064615;28;20028;-77
2022/10/26 10:20:33;;;;;;;6.95;2.65;;;;;;;18.90;46.26;94501.53;5064618;28;20230;-76
2022/10/26 10:23:03;;;;;;;6.03;2.15;;;;;;;19.03;45.32;94506.50;5046537;28;20025;-77
2022/10/26 10:25:34;;;;;;;5.18;2.30;;;;;;;19.20;45.58;94501.84;5064594;28;20028;-77
2022/10/26 10:28:00;;;;;;;6.60;2.80;;;;;;;19.29;44.00;94505.13;5064227;28;20322;-76
2022/10/26 10:30:31;;;;;;;9.90;2.28;;;;;;;19.30;43.96;94505.94;5064236;28;20025;-76
2022/10/26 10:33:10;;;;;;;9.32;2.80;;;;;;;19.27;44.61;94493.88;5064283;28;20242;-76
2022/10/26 10:35:45;;;;;;;5.78;2.00;;;;;;;19.40;45.78;94499.97;5064002;28;20063;-76
2022/10/26 10:38:20;;;;;;;8.90;2.33;;;;;;;19.48;44.67;94490.88;5063368;28;20016;-76
2022/10/26 10:40:54;;;;;;;5.13;2.20;;;;;;;19.57;44.23;94490.66;5064113;28;20226;-76
2022/10/26 10:43:21;;;;;;;7.38;2.40;;;;;;;19.71;43.77;94492.91;5064005;28;20196;-77
2022/10/26 10:45:49;;;;;;;13.25;2.55;;;;;;;19.64;44.25;94490.78;5064283;28;20032;-76
2022/10/26 10:48:25;;;;;;;10.10;2.25;;;;;;;19.63;44.18;94491.94;5064098;28;20029;-76
2022/10/26 10:50:53;;;;;;;8.48;2.45;;;;;;;19.69;44.94;94479.72;5064041;28;20044;-77
2022/10/26 10:53:33;;;;;;;12.73;2.50;;;;;;;19.84;46.11;94475.38;5063869;28;20028;-77
2022/10/26 10:56:30;;;;;;;3.85;2.10;;;;;;;20.03;44.07;94478.09;5063758;28;20217;-77
2022/10/26 10:59:20;;;;;;;19.02;8.93;;;;;;;19.91;44.27;94483.66;5063503;28;20025;-77
2022/10/26 11:01:56;;;;;;;10.77;4.90;;;;;;;19.92;43.63;94468.19;5063823;28;20106;-77
2022/10/26 11:04:32;;;;;;;10.65;2.65;;;;;;;19.82;44.12;94473.06;5063632;28;20024;-77
2022/10/26 11:07:01;;;;;;;7.25;2.40;;;;;;;19.90;44.06;94462.38;5063726;28;20033;-77
2022/10/26 11:09:31;;;;;;;11.75;2.63;;;;;;;19.98;44.33;94461.34;5063528;28;20073;-77
2022/10/26 11:12:01;;;;;;;8.23;2.60;;;;;;;20.05;43.74;94458.78;5063750;28;20084;-77
2022/10/26 11:14:32;;;;;;;35.33;4.22;;;;;;;20.15;43.52;94465.53;5063632;28;20028;-76
2022/10/26 11:17:19;;;;;;;18.88;4.07;;;;;;;20.27;43.37;94464.56;5063400;28;20032;-77
2022/10/26 11:20:01;;;;;;;20.98;6.65;;;;;;;20.26;43.10;94454.91;5062419;28;20024;-77
2022/10/26 11:22:41;;;;;;;7.85;2.30;;;;;;;20.29;42.50;94467.72;5063323;28;20258;-77
2022/10/26 11:25:58;;;;;;;9.80;3.55;;;;;;;20.33;43.16;94457.72;5063143;28;20315;-77
2022/10/26 11:28:34;;;;;;;15.73;2.25;;;;;;;20.40;41.65;94460.56;5008357;28;20037;-77
2022/10/26 11:31:07;;;;;;;25.35;2.78;;;;;;;20.44;42.26;94453.28;5063156;28;20024;-77
2022/10/26 11:33:50;;;;;;;12.63;2.65;;;;;;;20.58;40.78;94450.03;5063014;28;20071;-77
2022/10/26 11:36:23;;;;;;;20.10;4.30;;;;;;;20.58;40.41;94452.75;5062983;28;20043;-77
2022/10/26 11:39:10;;;;;;;13.43;4.25;;;;;;;20.55;40.26;94450.75;5062957;28;20017;-77
2022/10/26 11:41:42;;;;;;;16.77;2.38;;;;;;;20.64;40.60;94448.63;5062775;28;20050;-77
2022/10/26 11:44:18;;;;;;;18.23;2.83;;;;;;;20.74;39.52;94448.00;5062864;28;20388;-77
2022/10/26 11:47:08;;;;;;;9.75;4.10;;;;;;;20.80;39.10;94435.72;5063089;28;20020;-76